createdAt,value
2022-11-09T00:01:32.352Z,100177.69
2022-11-09T00:04:01.093Z,100171.28
2022-11-09T00:06:28.799Z,100178.53
2022-11-09T00:08:55.767Z,100187.50
2022-11-09T00:11:22.990Z,100179.38
2022-11-09T00:13:50.117Z,100188.34
2022-11-09T00:16:19.283Z,100185.91
2022-11-09T00:18:47.669Z,100192.94
2022-11-09T00:21:19.909Z,100187.50
2022-11-09T00:23:55.781Z,100185.81
2022-11-09T00:26:22.596Z,100182.41
2022-11-09T00:28:49.927Z,100185.91
2022-11-09T00:31:21.894Z,100187.50
2022-11-09T00:33:53.433Z,100190.28
2022-11-09T00:36:20.736Z,100181.66
2022-11-09T00:38:54.368Z,100180.72
2022-11-09T00:41:21.675Z,100180.84
2022-11-09T00:43:48.763Z,100179.00
2022-11-09T00:46:15.801Z,100180.72
2022-11-09T00:48:46.786Z,100182.41
2022-11-09T00:51:16.487Z,100178.03
2022-11-09T00:53:48.879Z,100182.41
2022-11-09T00:56:18.784Z,100166.78
2022-11-09T00:58:55.661Z,100167.50
2022-11-09T01:01:26.492Z,100167.63
2022-11-09T01:03:54.896Z,100170.16
2022-11-09T01:06:34.919Z,100167.97
2022-11-09T01:09:02.859Z,100156.50
2022-11-09T01:11:29.784Z,100161.56
2022-11-09T01:13:59.447Z,100161.69
2022-11-09T01:16:26.640Z,100159.91
2022-11-09T01:18:57.783Z,100153.69
2022-11-09T01:21:27.654Z,100163.66
2022-11-09T01:24:09.262Z,100159.75
2022-11-09T01:26:36.852Z,100167.88
2022-11-09T01:29:03.598Z,100159.50
2022-11-09T01:31:38.678Z,100150.69
2022-11-09T01:34:05.422Z,100145.22
2022-11-09T01:36:33.493Z,100144.25
2022-11-09T01:39:01.031Z,100137.22
2022-11-09T01:41:34.284Z,100134.69
2022-11-09T01:44:08.256Z,100146.19
2022-11-09T01:46:44.635Z,100136.75
2022-11-09T01:49:24.928Z,100139.78
2022-11-09T01:51:59.739Z,100129.97
2022-11-09T01:54:29.919Z,100140.88
2022-11-09T01:57:08.260Z,100138.34
2022-11-09T01:59:47.555Z,100140.50
2022-11-09T02:02:17.661Z,100138.69
2022-11-09T02:04:49.744Z,100135.19
2022-11-09T02:07:17.576Z,100130.69
2022-11-09T02:09:56.340Z,100143.03
2022-11-09T02:12:26.094Z,100139.53
2022-11-09T02:14:56.806Z,100140.50
2022-11-09T02:17:23.538Z,100135.91
2022-11-09T02:19:50.587Z,100123.28
2022-11-09T02:22:21.014Z,100122.81
2022-11-09T02:24:50.862Z,100112.53
2022-11-09T02:27:23.594Z,100108.19
2022-11-09T02:29:52.679Z,100109.88
2022-11-09T02:32:21.616Z,100113.38
2022-11-09T02:34:48.855Z,100113.38
2022-11-09T02:37:42.194Z,100107.69
2022-11-09T02:40:14.997Z,100106.72
2022-11-09T02:42:45.505Z,100112.91
2022-11-09T02:45:29.801Z,100120.63
2022-11-09T02:48:02.607Z,100114.09
2022-11-09T02:50:29.633Z,100106.25
2022-11-09T02:52:56.418Z,100109.03
2022-11-09T02:55:23.858Z,100101.88
2022-11-09T02:57:51.222Z,100102.84
2022-11-09T03:00:20.688Z,100103.34
2022-11-09T03:02:47.468Z,100114.00
2022-11-09T03:05:15.439Z,100117.63
2022-11-09T03:07:43.531Z,100119.41
2022-11-09T03:10:11.253Z,100119.91
2022-11-09T03:12:59.539Z,100127.41
2022-11-09T03:15:26.253Z,100119.41
2022-11-09T03:17:55.518Z,100114.22
2022-11-09T03:20:22.506Z,100120.00
2022-11-09T03:22:58.511Z,100113.84
2022-11-09T03:25:30.949Z,100104.88
2022-11-09T03:28:05.858Z,100103.91
2022-11-09T03:30:33.249Z,100093.97
2022-11-09T03:34:07.377Z,100101.38
2022-11-09T03:36:38.375Z,100101.94
2022-11-09T03:39:12.787Z,100103.03
2022-11-09T03:41:40.162Z,100108.84
2022-11-09T03:44:14.554Z,100112.00
2022-11-09T03:50:59.687Z,100102.94
2022-11-09T03:53:28.340Z,100108.50
2022-11-09T03:59:58.350Z,100120.50
2022-11-09T04:02:58.863Z,100124.97
2022-11-09T04:05:36.165Z,100110.47
2022-11-09T04:08:11.791Z,100121.00
2022-11-09T04:10:41.543Z,100132.00
2022-11-09T04:13:26.112Z,100133.72
2022-11-09T04:15:55.050Z,100129.09
2022-11-09T04:28:34.595Z,100128.13
2022-11-09T04:31:02.133Z,100129.13
2022-11-09T04:33:29.108Z,100128.88
2022-11-09T04:35:55.801Z,100130.31
2022-11-09T04:38:22.491Z,100122.56
2022-11-09T04:40:49.239Z,100119.81
2022-11-09T04:43:16.417Z,100116.78
2022-11-09T04:45:43.154Z,100113.00
2022-11-09T04:48:13.332Z,100119.09
2022-11-09T04:50:40.029Z,100119.09
2022-11-09T04:53:11.652Z,100124.16
2022-11-09T05:13:51.768Z,100124.88
2022-11-09T05:16:19.721Z,100132.38
2022-11-09T05:18:46.999Z,100139.53
2022-11-09T05:21:13.686Z,100145.59
2022-11-09T05:23:58.986Z,100136.97
2022-11-09T05:26:34.328Z,100131.06
2022-11-09T05:29:03.415Z,100136.16
2022-11-09T05:31:30.703Z,100122.81
2022-11-09T05:33:58.368Z,100128.41
2022-11-09T05:36:25.516Z,100133.47
2022-11-09T05:38:52.404Z,100146.81
2022-11-09T05:41:19.101Z,100143.16
2022-11-09T05:43:46.324Z,100140.50
2022-11-09T05:46:14.682Z,100152.97
2022-11-09T05:48:44.859Z,100155.63
2022-11-09T05:51:13.887Z,100133.47
2022-11-09T05:53:46.123Z,100142.09
2022-11-09T05:56:14.403Z,100148.38
2022-11-09T05:58:42.191Z,100147.63
2022-11-09T06:01:11.598Z,100141.22
2022-11-09T06:03:38.379Z,100146.81
2022-11-09T06:06:08.841Z,100136.00
2022-11-09T06:08:35.915Z,100151.75
2022-11-09T06:11:06.614Z,100144.16
2022-11-09T06:13:33.305Z,100162.78
2022-11-09T06:16:00.705Z,100171.88
2022-11-09T06:18:28.371Z,100152.34
2022-11-09T06:21:05.685Z,100159.25
2022-11-09T06:23:32.484Z,100154.06
2022-11-09T06:25:59.873Z,100161.78
2022-11-09T06:28:26.519Z,100155.50
2022-11-09T06:30:53.439Z,100162.03
2022-11-09T06:33:20.353Z,100165.44
2022-11-09T06:35:49.771Z,100159.25
2022-11-09T06:38:18.732Z,100176.09
2022-11-09T06:40:45.302Z,100175.34
2022-11-09T06:43:11.927Z,100177.19
2022-11-09T06:45:38.741Z,100172.69
2022-11-09T06:48:05.704Z,100171.63
2022-11-09T06:50:33.295Z,100183.84
2022-11-09T06:53:00.839Z,100178.53
2022-11-09T06:55:27.886Z,100180.94
2022-11-09T06:57:54.814Z,100183.47
2022-11-09T07:00:21.606Z,100179.00
2022-11-09T07:02:48.206Z,100187.00
2022-11-09T07:05:14.848Z,100185.06
2022-11-09T07:07:44.691Z,100190.16
2022-11-09T07:10:12.183Z,100185.78
2022-11-09T07:12:38.915Z,100193.66
2022-11-09T07:15:06.084Z,100197.91
2022-11-09T07:17:33.287Z,100195.00
2022-11-09T07:20:01.254Z,100200.94
2022-11-09T07:22:28.843Z,100201.91
2022-11-09T07:24:55.991Z,100194.78
2022-11-09T07:27:27.559Z,100196.44
2022-11-09T07:29:54.923Z,100191.25
2022-11-09T07:32:40.574Z,100180.84
2022-11-09T07:35:11.788Z,100172.22
2022-11-09T07:37:38.521Z,100171.25
2022-11-09T07:40:08.204Z,100157.94
2022-11-09T07:42:34.801Z,100162.44
2022-11-09T07:45:01.497Z,100150.91
2022-11-09T07:47:28.071Z,100145.59
2022-11-09T07:49:54.717Z,100127.81
2022-11-09T07:52:21.286Z,100125.63
2022-11-09T07:54:51.970Z,100158.19
2022-11-09T07:57:24.502Z,100166.41
2022-11-09T07:59:53.605Z,100180.34
2022-11-09T08:09:56.484Z,100189.88
2022-11-09T08:16:04.337Z,100199.69
2022-11-09T08:18:34.883Z,100200.06
2022-11-09T08:24:09.925Z,100186.25
2022-11-09T08:26:36.568Z,100175.47
2022-11-09T08:29:03.180Z,100188.72
2022-11-09T08:31:29.919Z,100189.78
2022-11-09T08:33:56.565Z,100188.81
2022-11-09T08:36:26.103Z,100183.09
2022-11-09T08:38:52.922Z,100182.25
2022-11-09T08:41:19.511Z,100175.00
2022-11-09T08:43:46.083Z,100181.31
2022-11-09T08:46:12.732Z,100184.81
2022-11-09T08:48:40.792Z,100180.31
2022-11-09T08:54:43.947Z,100193.91
2022-11-09T09:00:11.911Z,100198.38
2022-11-09T09:05:53.419Z,100222.84
2022-11-09T09:12:02.103Z,100225.75
2022-11-09T09:14:41.112Z,100227.34
2022-11-09T09:17:35.585Z,100215.97
2022-11-09T09:26:20.618Z,100221.78
2022-11-09T09:28:47.251Z,100226.63
2022-11-09T09:31:18.200Z,100235.34
2022-11-09T09:33:47.557Z,100228.31
2022-11-09T09:36:16.579Z,100226.97
2022-11-09T09:38:43.180Z,100228.34
2022-11-09T09:41:13.378Z,100229.91
2022-11-09T09:43:44.208Z,100229.03
2022-11-09T09:46:31.401Z,100244.81
2022-11-09T09:49:00.255Z,100237.41
2022-11-09T09:51:43.092Z,100231.34
2022-11-09T09:54:15.600Z,100239.81
2022-11-09T09:56:43.510Z,100239.94
2022-11-09T09:59:29.030Z,100241.84
2022-11-09T10:01:57.578Z,100242.47
2022-11-09T10:04:36.718Z,100237.41
2022-11-09T10:07:15.658Z,100235.00
2022-11-09T10:10:01.183Z,100247.59
2022-11-09T10:12:46.753Z,100256.06
2022-11-09T10:15:21.431Z,100252.31
2022-11-09T10:17:54.146Z,100260.78
2022-11-09T10:20:20.734Z,100269.03
2022-11-09T10:22:47.415Z,100270.25
2022-11-09T10:25:27.597Z,100256.31
2022-11-09T10:28:04.455Z,100247.72
2022-11-09T10:30:31.589Z,100251.09
2022-11-09T10:33:00.170Z,100249.28
2022-11-09T10:35:31.102Z,100244.66
2022-11-09T10:37:57.776Z,100232.19
2022-11-09T10:40:29.004Z,100247.72
2022-11-09T10:43:14.952Z,100230.00
2022-11-09T10:46:04.852Z,100233.53
2022-11-09T10:48:50.294Z,100234.00
2022-11-09T10:51:39.179Z,100236.78
2022-11-09T10:54:26.672Z,100218.69
2022-11-09T10:57:19.461Z,100209.25
2022-11-09T11:00:05.605Z,100208.97
2022-11-09T11:02:52.084Z,100197.91
2022-11-09T11:05:37.547Z,100203.09
2022-11-09T11:08:27.433Z,100227.09
2022-11-09T11:11:32.793Z,100208.59
2022-11-09T11:14:29.723Z,100211.31
2022-11-09T11:17:42.784Z,100211.66
2022-11-09T11:20:29.961Z,100208.81
2022-11-09T11:23:15.360Z,100209.75
2022-11-09T11:26:06.413Z,100212.16
2022-11-09T11:29:02.239Z,100213.69
2022-11-09T11:31:47.797Z,100207.59
2022-11-09T11:34:58.656Z,100197.47
2022-11-09T11:37:50.300Z,100195.63
2022-11-09T11:40:42.502Z,100193.13
2022-11-09T11:43:30.539Z,100194.59
2022-11-09T11:46:24.732Z,100200.06
2022-11-09T11:49:27.485Z,100202.72
2022-11-09T11:52:18.859Z,100183.03
2022-11-09T11:55:26.454Z,100167.88
2022-11-09T11:58:20.646Z,100177.31
2022-11-09T12:01:11.991Z,100174.06
2022-11-09T12:04:00.412Z,100178.97
2022-11-09T12:06:51.375Z,100178.28
2022-11-09T12:09:43.689Z,100168.56
2022-11-09T12:12:37.723Z,100172.53
2022-11-09T12:15:25.855Z,100154.72
2022-11-09T12:18:19.845Z,100152.94
2022-11-09T12:21:13.669Z,100160.31
2022-11-09T12:24:17.400Z,100162.56
2022-11-09T12:27:37.086Z,100159.13
2022-11-09T12:30:24.117Z,100144.81
2022-11-09T12:33:13.339Z,100148.75
2022-11-09T12:35:59.658Z,100149.44
2022-11-09T12:38:52.881Z,100149.88
2022-11-09T12:41:38.167Z,100152.13
2022-11-09T12:44:25.197Z,100163.69
2022-11-09T12:47:15.324Z,100166.66
2022-11-09T12:50:00.359Z,100162.97
2022-11-09T12:52:45.653Z,100162.41
2022-11-09T12:55:49.443Z,100165.66
2022-11-09T12:58:35.470Z,100170.97
2022-11-09T13:01:27.082Z,100168.84
2022-11-09T13:04:16.333Z,100186.72
2022-11-09T13:07:04.446Z,100187.28
2022-11-09T13:09:53.390Z,100178.00
2022-11-09T13:12:39.556Z,100167.91
2022-11-09T13:15:28.709Z,100174.66
2022-11-09T13:18:31.284Z,100177.75
2022-11-09T13:21:21.532Z,100182.72
2022-11-09T13:24:42.424Z,100180.88
2022-11-09T13:27:30.408Z,100166.09
2022-11-09T13:30:36.478Z,100167.91
2022-11-09T13:33:22.873Z,100166.91
2022-11-09T13:36:08.499Z,100167.91
2022-11-09T13:39:12.219Z,100173.00
2022-11-09T13:41:57.245Z,100171.00
2022-11-09T13:44:45.814Z,100168.75
2022-11-09T13:47:34.223Z,100178.16
2022-11-09T13:50:20.144Z,100173.94
2022-11-09T13:53:05.735Z,100174.38
2022-11-09T13:55:50.908Z,100162.41
2022-11-09T13:58:39.016Z,100174.81
2022-11-09T14:01:48.092Z,100178.47
2022-11-09T14:04:37.947Z,100188.03
2022-11-09T14:07:27.698Z,100173.53
2022-11-09T14:10:12.819Z,100181.84
2022-11-09T14:13:03.741Z,100181.47
2022-11-09T14:15:53.369Z,100184.66
2022-11-09T14:18:51.067Z,100188.63
2022-11-09T14:21:42.900Z,100186.19
2022-11-09T14:24:29.694Z,100184.78
2022-11-09T14:27:22.093Z,100187.59
2022-11-09T14:30:33.767Z,100181.50
2022-11-09T14:33:22.606Z,100185.28
2022-11-09T14:36:10.732Z,100180.75
2022-11-09T14:38:57.596Z,100181.56
2022-11-09T14:41:43.700Z,100182.94
2022-11-09T14:44:29.999Z,100204.72
2022-11-09T14:47:19.028Z,100206.38
2022-11-09T14:50:04.412Z,100196.34
2022-11-09T14:52:49.981Z,100211.91
2022-11-09T14:55:35.811Z,100209.50
2022-11-09T14:58:21.488Z,100206.97
2022-11-09T15:01:16.806Z,100203.31
2022-11-09T15:04:04.776Z,100203.97
2022-11-09T15:06:51.259Z,100204.94
2022-11-09T15:09:42.187Z,100209.97
2022-11-09T15:12:29.505Z,100206.59
2022-11-09T15:15:22.142Z,100212.56
2022-11-09T15:18:15.554Z,100220.00
2022-11-09T15:21:10.533Z,100214.09
2022-11-09T15:24:08.165Z,100214.31
2022-11-09T15:26:54.096Z,100214.88
2022-11-09T15:29:42.945Z,100218.63
2022-11-09T15:32:28.015Z,100214.53
2022-11-09T15:35:14.391Z,100216.59
2022-11-09T15:37:59.750Z,100214.31
2022-11-09T15:40:44.640Z,100217.38
2022-11-09T15:43:29.763Z,100213.13
2022-11-09T15:46:15.974Z,100213.50
2022-11-09T15:49:15.365Z,100213.63
2022-11-09T15:52:00.702Z,100213.03
2022-11-09T15:54:47.029Z,100213.03
2022-11-09T15:57:32.638Z,100215.97
2022-11-09T16:00:20.918Z,100221.31
2022-11-09T16:03:06.521Z,100219.72
2022-11-09T16:05:51.592Z,100230.53
2022-11-09T16:08:36.628Z,100231.78
2022-11-09T16:11:22.084Z,100238.94
2022-11-09T16:14:07.126Z,100235.53
2022-11-09T16:16:52.166Z,100236.63
2022-11-09T16:19:39.704Z,100242.94
2022-11-09T16:22:29.028Z,100241.97
2022-11-09T16:25:14.823Z,100248.41
2022-11-09T16:27:59.793Z,100249.25
2022-11-09T16:30:46.887Z,100245.88
2022-11-09T16:33:32.449Z,100250.25
2022-11-09T16:36:19.796Z,100245.47
2022-11-09T16:39:06.434Z,100243.69
2022-11-09T16:41:51.841Z,100246.38
2022-11-09T16:44:37.496Z,100250.47
2022-11-09T16:47:22.824Z,100251.56
2022-11-09T16:50:07.962Z,100253.75
2022-11-09T16:52:52.958Z,100257.28
2022-11-09T16:55:38.215Z,100260.22
2022-11-09T16:58:23.785Z,100265.06
2022-11-09T17:01:12.426Z,100255.34
2022-11-09T17:03:58.786Z,100262.47
2022-11-09T17:06:44.214Z,100266.50
2022-11-09T17:09:33.151Z,100261.53
2022-11-09T17:12:18.205Z,100267.22
2022-11-09T17:15:03.609Z,100274.97
2022-11-09T17:17:48.972Z,100282.72
2022-11-09T17:20:35.356Z,100317.03
2022-11-09T17:23:36.057Z,100303.69
2022-11-09T17:26:29.063Z,100299.25
2022-11-09T17:29:17.590Z,100300.94
2022-11-09T17:32:19.788Z,100304.06
2022-11-09T17:35:08.493Z,100308.22
2022-11-09T17:37:53.858Z,100311.59
2022-11-09T17:40:42.175Z,100309.66
2022-11-09T17:43:36.564Z,100312.09
2022-11-09T17:46:27.098Z,100317.41
2022-11-09T17:51:02.118Z,100309.28
2022-11-09T17:52:54.611Z,100324.94
2022-11-09T17:55:45.921Z,100326.88
2022-11-09T17:58:31.553Z,100330.28
2022-11-09T18:01:19.952Z,100328.81
2022-11-09T18:04:06.742Z,100335.13
2022-11-09T18:06:52.177Z,100336.09
2022-11-09T18:09:42.223Z,100342.38
2022-11-09T18:12:27.759Z,100338.75
2022-11-09T18:15:13.119Z,100339.72
2022-11-09T18:17:59.456Z,100340.69
2022-11-09T18:20:44.924Z,100344.34
2022-11-09T18:23:30.304Z,100346.25
2022-11-09T18:26:15.422Z,100354.25
2022-11-09T18:29:02.030Z,100355.34
2022-11-09T18:31:47.591Z,100345.56
2022-11-09T18:34:32.950Z,100356.22
2022-11-09T18:37:21.375Z,100350.16
2022-11-09T18:40:08.795Z,100366.28
2022-11-09T18:42:54.330Z,100369.66
2022-11-09T18:46:27.369Z,100369.03
2022-11-09T18:49:23.015Z,100366.50
2022-11-09T18:52:08.440Z,100362.25
2022-11-09T18:54:53.685Z,100375.09
2022-11-09T18:57:41.784Z,100380.94
2022-11-09T19:00:27.355Z,100375.47
2022-11-09T19:03:14.122Z,100379.94
2022-11-09T19:06:21.376Z,100376.31
2022-11-09T19:09:34.494Z,100376.06
2022-11-09T19:12:19.647Z,100358.16
2022-11-09T19:15:07.907Z,100353.56
2022-11-09T19:17:53.786Z,100353.44
2022-11-09T19:20:39.088Z,100371.47
2022-11-09T19:23:33.841Z,100371.59
2022-11-09T19:26:27.367Z,100371.72
2022-11-09T19:29:13.281Z,100372.81
2022-11-09T19:31:58.732Z,100366.41
2022-11-09T19:34:46.285Z,100371.72
2022-11-09T19:37:31.833Z,100371.72
2022-11-09T19:40:17.190Z,100378.97
2022-11-09T19:43:09.231Z,100375.59
2022-11-09T19:46:00.600Z,100384.56
2022-11-09T19:48:46.759Z,100389.28
2022-11-09T19:51:32.185Z,100393.78
2022-11-09T19:54:18.753Z,100395.56
2022-11-09T19:57:04.432Z,100392.19
2022-11-09T19:59:50.294Z,100399.09
2022-11-09T20:02:59.825Z,100393.88
2022-11-09T20:17:06.068Z,100409.00
2022-11-09T20:20:02.533Z,100418.94
2022-11-09T21:40:48.356Z,100455.38
2022-11-09T21:55:18.342Z,100466.63
2022-11-09T23:10:28.857Z,100544.56
2022-11-09T23:16:50.085Z,100555.84
2022-11-09T23:19:51.238Z,100553.19
2022-11-09T23:22:55.362Z,100558.63
2022-11-09T23:26:19.869Z,100561.19
2022-11-09T23:30:17.138Z,100563.84
2022-11-09T23:33:03.031Z,100566.53
2022-11-09T23:35:53.569Z,100573.25
2022-11-09T23:38:42.293Z,100575.50
2022-11-09T23:41:30.732Z,100583.63
2022-11-09T23:44:16.268Z,100568.47
2022-11-09T23:47:31.032Z,100578.50
2022-11-09T23:50:41.835Z,100584.75
2022-11-09T23:53:35.890Z,100590.00
2022-11-09T23:56:25.676Z,100594.91
2022-11-09T23:59:14.157Z,100592.25
